ENQR

Snorre B Oilp

Snorre B Oilp, Norway
METAR ENQR 210320Z AUTO 26021KT 9999NDV SCT016/// OVC040/// 08/06 Q1013 W///S5
Observed Flight Rules
Apr-21 @ 03:20 UTC (33 minutes ago)
Wind Clouds
260° at 21 knots
  • Scattered at 1,600' AGL
  • Overcast at 4,000' AGL
Temperatures Readings
Current 8°C / 46°F
Dewpoint 6°C / 43°F
Humidity 87%
Altimeter 29.91" Hg
Pressure 1013 hPa
Elevation 10
METAR ENQR 210320Z AUTO 26021KT 9999NDV SCT016/// OVC040/// 08/06 Q1013 W///S5
Observed Flight Rules
Apr-21 @ 03:20 UTC
(33 minutes ago)
Wind
260° at 21 knots
Clouds
  • Scattered at 1,600' AGL
  • Overcast at 4,000' AGL
Temperature Dewpoint
8°C / 46°F 6°C / 43°F
Humidity Altimeter Pressure
87% 29.91" Hg 1013 hPa